createdAt,value
2022-11-08T00:00:21.054Z,1005.22
2022-11-08T00:01:21.030Z,1005.23
2022-11-08T00:02:21.202Z,1005.23
2022-11-08T00:03:21.073Z,1005.22
2022-11-08T00:04:20.996Z,1005.25
2022-11-08T00:05:21.042Z,1005.25
2022-11-08T00:06:20.976Z,1005.23
2022-11-08T00:07:20.991Z,1005.25
2022-11-08T00:08:21.077Z,1005.25
2022-11-08T00:09:20.942Z,1005.23
2022-11-08T00:10:20.942Z,1005.30
2022-11-08T00:11:20.927Z,1005.32
2022-11-08T00:12:20.909Z,1005.31
2022-11-08T00:13:20.903Z,1005.32
2022-11-08T00:14:20.894Z,1005.32
2022-11-08T00:15:20.886Z,1005.33
2022-11-08T00:16:20.878Z,1005.33
2022-11-08T00:17:20.853Z,1005.31
2022-11-08T00:18:20.842Z,1005.32
2022-11-08T00:19:20.849Z,1005.34
2022-11-08T00:20:20.827Z,1005.31
2022-11-08T00:21:20.818Z,1005.33
2022-11-08T00:22:20.814Z,1005.35
2022-11-08T00:23:20.821Z,1005.31
2022-11-08T00:24:20.799Z,1005.26
2022-11-08T00:25:20.772Z,1005.24
2022-11-08T00:26:20.754Z,1005.29
2022-11-08T00:27:20.742Z,1005.28
2022-11-08T00:28:20.736Z,1005.27
2022-11-08T00:29:20.738Z,1005.25
2022-11-08T00:30:20.728Z,1005.27
2022-11-08T00:31:20.700Z,1005.29
2022-11-08T00:32:20.689Z,1005.25
2022-11-08T00:33:20.674Z,1005.25
2022-11-08T00:34:20.678Z,1005.25
2022-11-08T00:35:20.670Z,1005.23
2022-11-08T00:36:20.670Z,1005.24
2022-11-08T00:37:20.644Z,1005.25
2022-11-08T00:38:20.875Z,1005.23
2022-11-08T00:39:20.638Z,1005.17
2022-11-08T00:40:20.608Z,1005.14
2022-11-08T00:41:20.595Z,1005.14
2022-11-08T00:42:20.586Z,1005.19
2022-11-08T00:43:20.578Z,1005.18
2022-11-08T00:44:20.557Z,1005.17
2022-11-08T00:45:20.544Z,1005.21
2022-11-08T00:46:20.552Z,1005.16
2022-11-08T00:47:20.537Z,1005.23
2022-11-08T00:48:20.824Z,1005.19
2022-11-08T00:49:20.500Z,1005.21
2022-11-08T00:50:20.496Z,1005.15
2022-11-08T00:51:20.479Z,1005.11
2022-11-08T00:52:20.481Z,1005.12
2022-11-08T00:53:20.465Z,1005.08
2022-11-08T00:54:20.453Z,1005.09
2022-11-08T00:55:20.477Z,1005.04
2022-11-08T00:56:20.426Z,1005.07
2022-11-08T00:57:22.284Z,1005.05
2022-11-08T00:58:24.891Z,1005.06
2022-11-08T00:59:21.405Z,1005.05
2022-11-08T01:00:20.398Z,1005.05
2022-11-08T01:01:20.479Z,1005.03
2022-11-08T01:02:20.396Z,1004.97
2022-11-08T01:03:20.362Z,1005.02
2022-11-08T01:04:20.336Z,1005.05
2022-11-08T01:05:20.328Z,1005.02
2022-11-08T01:06:20.331Z,1005.04
2022-11-08T01:07:20.306Z,1005.03
2022-11-08T01:08:20.695Z,1005.04
2022-11-08T01:09:20.294Z,1005.00
2022-11-08T01:10:20.289Z,1004.99
2022-11-08T01:11:20.289Z,1004.99
2022-11-08T01:12:20.265Z,1005.00
2022-11-08T01:13:20.244Z,1005.00
2022-11-08T01:14:20.243Z,1005.01
2022-11-08T01:15:20.351Z,1005.00
2022-11-08T01:16:20.210Z,1005.03
2022-11-08T01:17:20.193Z,1004.95
2022-11-08T01:18:20.649Z,1004.92
2022-11-08T01:19:20.185Z,1004.86
2022-11-08T01:20:20.179Z,1004.90
2022-11-08T01:21:20.160Z,1004.87
2022-11-08T01:22:20.149Z,1004.83
2022-11-08T01:23:20.137Z,1004.82
2022-11-08T01:24:20.149Z,1004.80
2022-11-08T01:25:20.106Z,1004.81
2022-11-08T01:26:20.102Z,1004.76
2022-11-08T01:27:20.105Z,1004.81
2022-11-08T01:28:20.521Z,1004.82
2022-11-08T01:29:20.070Z,1004.79
2022-11-08T01:30:20.066Z,1004.79
2022-11-08T01:31:20.047Z,1004.85
2022-11-08T01:32:20.029Z,1004.83
2022-11-08T01:33:20.020Z,1004.79
2022-11-08T01:34:20.014Z,1004.72
2022-11-08T01:35:20.004Z,1004.74
2022-11-08T01:36:20.000Z,1004.72
2022-11-08T01:37:19.983Z,1004.69
2022-11-08T01:38:20.451Z,1004.67
2022-11-08T01:39:19.955Z,1004.59
2022-11-08T01:40:19.948Z,1004.58
2022-11-08T01:41:19.936Z,1004.61
2022-11-08T01:42:19.928Z,1004.67
2022-11-08T01:43:19.951Z,1004.66
2022-11-08T01:44:19.910Z,1004.72
2022-11-08T01:45:19.895Z,1004.72
2022-11-08T01:46:19.948Z,1004.73
2022-11-08T01:47:19.867Z,1004.69
2022-11-08T01:48:20.233Z,1004.69
2022-11-08T01:49:19.853Z,1004.71
2022-11-08T01:50:19.839Z,1004.72
2022-11-08T01:51:19.830Z,1004.69
2022-11-08T01:52:19.821Z,1004.65
2022-11-08T01:53:19.816Z,1004.67
2022-11-08T01:54:19.810Z,1004.67
2022-11-08T01:55:19.785Z,1004.67
2022-11-08T01:56:19.766Z,1004.66
2022-11-08T01:57:19.755Z,1004.67
2022-11-08T01:58:20.157Z,1004.69
2022-11-08T01:59:19.762Z,1004.64
2022-11-08T02:00:19.738Z,1004.66
2022-11-08T02:01:19.800Z,1004.62
2022-11-08T02:02:19.801Z,1004.67
2022-11-08T02:03:19.691Z,1004.67
2022-11-08T02:04:19.686Z,1004.58
2022-11-08T02:05:19.675Z,1004.60
2022-11-08T02:06:19.673Z,1004.55
2022-11-08T02:07:19.646Z,1004.59
2022-11-08T02:08:20.154Z,1004.60
2022-11-08T02:09:19.629Z,1004.62
2022-11-08T02:10:19.621Z,1004.59
2022-11-08T02:11:19.627Z,1004.58
2022-11-08T02:12:19.591Z,1004.58
2022-11-08T02:13:19.580Z,1004.58
2022-11-08T02:14:19.589Z,1004.57
2022-11-08T02:15:19.578Z,1004.52
2022-11-08T02:16:19.569Z,1004.46
2022-11-08T02:17:19.537Z,1004.47
2022-11-08T02:18:19.841Z,1004.48
2022-11-08T02:19:19.513Z,1004.47
2022-11-08T02:20:19.509Z,1004.44
2022-11-08T02:21:19.498Z,1004.45
2022-11-08T02:22:19.499Z,1004.47
2022-11-08T02:23:19.471Z,1004.49
2022-11-08T02:24:19.465Z,1004.47
2022-11-08T02:25:19.456Z,1004.49
2022-11-08T02:26:19.445Z,1004.52
2022-11-08T02:27:19.436Z,1004.49
2022-11-08T02:28:19.727Z,1004.50
2022-11-08T02:29:19.428Z,1004.49
2022-11-08T02:30:19.393Z,1004.49
2022-11-08T02:31:19.408Z,1004.46
2022-11-08T02:32:19.390Z,1004.45
2022-11-08T02:33:19.358Z,1004.41
2022-11-08T02:34:19.350Z,1004.42
2022-11-08T02:35:19.370Z,1004.42
2022-11-08T02:36:19.334Z,1004.38
2022-11-08T02:37:19.323Z,1004.35
2022-11-08T02:38:19.798Z,1004.32
2022-11-08T02:39:19.294Z,1004.34
2022-11-08T02:40:19.289Z,1004.36
2022-11-08T02:41:19.296Z,1004.33
2022-11-08T02:42:19.264Z,1004.31
2022-11-08T02:43:19.257Z,1004.29
2022-11-08T02:44:19.251Z,1004.26
2022-11-08T02:45:19.238Z,1004.32
2022-11-08T02:46:19.228Z,1004.30
2022-11-08T02:47:19.249Z,1004.31
2022-11-08T02:48:19.706Z,1004.26
2022-11-08T02:49:19.191Z,1004.21
2022-11-08T02:50:19.184Z,1004.18
2022-11-08T02:51:19.163Z,1004.20
2022-11-08T02:52:19.158Z,1004.18
2022-11-08T02:53:19.152Z,1004.16
2022-11-08T02:54:19.148Z,1004.16
2022-11-08T02:55:19.132Z,1004.12
2022-11-08T02:56:19.116Z,1004.08
2022-11-08T02:57:19.104Z,1004.11
2022-11-08T02:58:19.559Z,1004.07
2022-11-08T02:59:19.072Z,1004.04
2022-11-08T03:00:19.097Z,1004.06
2022-11-08T03:01:19.120Z,1004.04
2022-11-08T03:02:19.185Z,1004.00
2022-11-08T03:03:19.055Z,1003.99
2022-11-08T03:04:19.028Z,1003.97
2022-11-08T03:05:19.032Z,1003.99
2022-11-08T03:06:19.012Z,1003.96
2022-11-08T03:07:24.559Z,1003.92
2022-11-08T03:08:20.518Z,1003.90
2022-11-08T03:09:18.980Z,1003.89
2022-11-08T03:10:18.960Z,1003.86
2022-11-08T03:11:18.942Z,1003.84
2022-11-08T03:12:18.931Z,1003.78
2022-11-08T03:13:18.928Z,1003.81
2022-11-08T03:14:18.931Z,1003.73
2022-11-08T03:15:18.917Z,1003.70
2022-11-08T03:16:18.898Z,1003.70
2022-11-08T03:17:18.876Z,1003.75
2022-11-08T03:18:19.380Z,1003.76
2022-11-08T03:19:18.886Z,1003.74
2022-11-08T03:20:18.845Z,1003.74
2022-11-08T03:21:18.854Z,1003.75
2022-11-08T03:22:18.823Z,1003.77
2022-11-08T03:23:18.810Z,1003.69
2022-11-08T03:24:18.801Z,1003.71
2022-11-08T03:25:18.789Z,1003.70
2022-11-08T03:26:18.780Z,1003.68
2022-11-08T03:27:18.790Z,1003.68
2022-11-08T03:28:22.685Z,1003.60
2022-11-08T03:29:18.755Z,1003.54
2022-11-08T03:30:18.763Z,1003.56
2022-11-08T03:31:18.731Z,1003.53
2022-11-08T03:32:18.730Z,1003.53
2022-11-08T03:33:18.716Z,1003.53
2022-11-08T03:34:18.695Z,1003.48
2022-11-08T03:35:18.705Z,1003.47
2022-11-08T03:36:18.676Z,1003.45
2022-11-08T03:37:18.674Z,1003.46
2022-11-08T03:38:18.944Z,1003.45
2022-11-08T03:39:18.635Z,1003.41
2022-11-08T03:40:18.628Z,1003.44
2022-11-08T03:41:18.613Z,1003.42
2022-11-08T03:42:18.610Z,1003.38
2022-11-08T03:43:18.611Z,1003.38
2022-11-08T03:44:18.587Z,1003.36
2022-11-08T03:45:18.582Z,1003.30
2022-11-08T03:46:18.566Z,1003.25
2022-11-08T03:47:18.556Z,1003.19
2022-11-08T03:48:18.860Z,1003.17
2022-11-08T03:49:18.564Z,1003.17
2022-11-08T03:50:18.519Z,1003.14
2022-11-08T03:51:18.536Z,1003.13
2022-11-08T03:52:18.503Z,1003.07
2022-11-08T03:53:18.492Z,1003.01
2022-11-08T03:54:18.493Z,1003.05
2022-11-08T03:55:18.470Z,1003.04
2022-11-08T03:56:18.458Z,1003.09
2022-11-08T03:57:18.457Z,1003.06
2022-11-08T03:58:18.775Z,1003.01
2022-11-08T03:59:18.426Z,1002.99
2022-11-08T04:00:18.417Z,1002.99
2022-11-08T04:01:18.489Z,1002.99
2022-11-08T04:02:18.521Z,1003.06
2022-11-08T04:03:18.374Z,1003.08
2022-11-08T04:04:18.375Z,1003.07
2022-11-08T04:05:18.367Z,1003.11
2022-11-08T04:06:18.351Z,1003.07
2022-11-08T04:07:18.369Z,1003.12
2022-11-08T04:08:18.788Z,1003.10
2022-11-08T04:09:21.487Z,1003.05
2022-11-08T04:10:18.304Z,1003.06
2022-11-08T04:11:18.293Z,1003.03
2022-11-08T04:12:18.284Z,1002.94
2022-11-08T04:13:18.293Z,1002.94
2022-11-08T04:14:18.267Z,1002.97
2022-11-08T04:15:18.246Z,1002.91
2022-11-08T04:16:18.324Z,1002.90
2022-11-08T04:17:18.234Z,1002.88
2022-11-08T04:18:18.612Z,1002.89
2022-11-08T04:19:18.216Z,1002.88
2022-11-08T04:20:18.196Z,1002.87
2022-11-08T04:21:18.181Z,1002.86
2022-11-08T04:22:18.202Z,1002.81
2022-11-08T04:23:18.203Z,1002.77
2022-11-08T04:24:18.143Z,1002.76
2022-11-08T04:25:18.134Z,1002.76
2022-11-08T04:26:18.129Z,1002.78
2022-11-08T04:27:18.125Z,1002.70
2022-11-08T04:28:18.600Z,1002.79
2022-11-08T04:29:18.106Z,1002.81
2022-11-08T04:30:18.078Z,1002.78
2022-11-08T04:31:18.067Z,1002.80
2022-11-08T04:32:18.057Z,1002.82
2022-11-08T04:33:18.060Z,1002.80
2022-11-08T04:34:18.044Z,1002.78
2022-11-08T04:35:18.027Z,1002.82
2022-11-08T04:36:18.016Z,1002.86
2022-11-08T04:37:18.002Z,1002.83
2022-11-08T04:38:18.315Z,1002.88
2022-11-08T04:39:18.015Z,1002.85
2022-11-08T04:40:17.984Z,1002.90
2022-11-08T04:41:17.958Z,1002.85
2022-11-08T04:42:17.958Z,1002.86
2022-11-08T04:43:17.935Z,1002.84
2022-11-08T04:44:17.931Z,1002.82
2022-11-08T04:45:17.921Z,1002.82
2022-11-08T04:46:17.920Z,1002.78
2022-11-08T04:47:17.899Z,1002.78
2022-11-08T04:48:18.231Z,1002.78
2022-11-08T04:49:17.873Z,1002.78
2022-11-08T04:50:17.862Z,1002.77
2022-11-08T04:51:17.854Z,1002.71
2022-11-08T04:52:17.864Z,1002.66
2022-11-08T04:53:17.841Z,1002.69
2022-11-08T04:54:17.822Z,1002.60
2022-11-08T04:55:17.851Z,1002.57
2022-11-08T04:56:17.795Z,1002.53
2022-11-08T04:57:17.794Z,1002.52
2022-11-08T04:58:18.095Z,1002.48
2022-11-08T04:59:17.768Z,1002.51
2022-11-08T05:00:17.750Z,1002.50
2022-11-08T05:01:17.844Z,1002.48
2022-11-08T05:02:17.909Z,1002.52
2022-11-08T05:03:17.724Z,1002.46
2022-11-08T05:04:17.710Z,1002.41
2022-11-08T05:05:17.704Z,1002.41
2022-11-08T05:06:17.684Z,1002.34
2022-11-08T05:07:17.685Z,1002.28
2022-11-08T05:08:17.989Z,1002.31
2022-11-08T05:09:17.659Z,1002.24
2022-11-08T05:10:17.654Z,1002.25
2022-11-08T05:11:17.652Z,1002.24
2022-11-08T05:12:17.631Z,1002.26
2022-11-08T05:13:17.614Z,1002.31
2022-11-08T05:14:17.632Z,1002.32
2022-11-08T05:15:17.587Z,1002.31
2022-11-08T05:16:17.601Z,1002.27
2022-11-08T05:17:17.571Z,1002.28
2022-11-08T05:18:17.843Z,1002.24
2022-11-08T05:19:17.550Z,1002.28
2022-11-08T05:20:17.568Z,1002.24
2022-11-08T05:21:17.523Z,1002.25
2022-11-08T05:22:17.516Z,1002.27
2022-11-08T05:23:17.506Z,1002.23
2022-11-08T05:24:17.501Z,1002.24
2022-11-08T05:25:17.476Z,1002.27
2022-11-08T05:26:17.476Z,1002.33
2022-11-08T05:27:17.483Z,1002.32
2022-11-08T05:28:17.843Z,1002.34
2022-11-08T05:29:17.448Z,1002.23
2022-11-08T05:30:17.429Z,1002.24
2022-11-08T05:31:17.433Z,1002.18
2022-11-08T05:32:17.413Z,1002.15
2022-11-08T05:33:17.391Z,1002.10
2022-11-08T05:34:17.386Z,1002.04
2022-11-08T05:35:17.379Z,1001.96
2022-11-08T05:36:17.363Z,1001.97
2022-11-08T05:37:17.356Z,1001.91
2022-11-08T05:38:17.710Z,1002.04
2022-11-08T05:39:17.329Z,1002.04
2022-11-08T05:40:17.327Z,1002.00
2022-11-08T05:41:17.305Z,1001.98
2022-11-08T05:42:17.291Z,1001.95
2022-11-08T05:43:17.630Z,1001.92
2022-11-08T05:44:17.271Z,1001.93
2022-11-08T05:45:17.281Z,1001.94
2022-11-08T05:46:17.262Z,1001.97
2022-11-08T05:47:17.239Z,1002.01
2022-11-08T05:48:17.631Z,1002.02
2022-11-08T05:49:17.222Z,1001.95
2022-11-08T05:50:19.508Z,1001.93
2022-11-08T05:51:17.192Z,1001.92
2022-11-08T05:52:17.196Z,1001.85
2022-11-08T05:53:17.394Z,1001.85
2022-11-08T05:54:17.178Z,1001.81
2022-11-08T05:55:17.157Z,1001.81
2022-11-08T05:56:17.154Z,1001.79
2022-11-08T05:57:21.183Z,1001.81
2022-11-08T05:58:17.117Z,1001.78
2022-11-08T05:59:17.158Z,1001.76
2022-11-08T06:00:17.105Z,1001.76
2022-11-08T06:01:17.099Z,1001.72
2022-11-08T06:02:17.179Z,1001.69
2022-11-08T06:03:20.920Z,1001.61
2022-11-08T06:04:18.101Z,1001.52
2022-11-08T06:05:17.072Z,1001.47
2022-11-08T06:06:17.058Z,1001.43
2022-11-08T06:07:17.036Z,1001.47
2022-11-08T06:08:17.026Z,1001.44
2022-11-08T06:09:17.058Z,1001.51
2022-11-08T06:10:17.009Z,1001.48
2022-11-08T06:11:16.989Z,1001.50
2022-11-08T06:12:16.976Z,1001.53
2022-11-08T06:13:16.977Z,1001.49
2022-11-08T06:14:16.998Z,1001.51
2022-11-08T06:15:16.965Z,1001.51
2022-11-08T06:16:16.926Z,1001.55
2022-11-08T06:17:16.911Z,1001.48
2022-11-08T06:18:16.920Z,1001.55
2022-11-08T06:19:16.907Z,1001.54
2022-11-08T06:20:16.897Z,1001.54
2022-11-08T06:21:16.909Z,1001.51
2022-11-08T06:22:16.895Z,1001.52
2022-11-08T06:23:17.325Z,1001.53
2022-11-08T06:24:16.847Z,1001.56
2022-11-08T06:25:16.864Z,1001.55
2022-11-08T06:26:16.825Z,1001.55
2022-11-08T06:27:16.827Z,1001.58
2022-11-08T06:28:16.817Z,1001.56
2022-11-08T06:29:16.792Z,1001.56
2022-11-08T06:30:16.790Z,1001.51
2022-11-08T06:31:16.784Z,1001.62
2022-11-08T06:32:16.775Z,1001.55
2022-11-08T06:33:17.169Z,1001.51
2022-11-08T06:34:16.753Z,1001.50
2022-11-08T06:35:16.782Z,1001.52
2022-11-08T06:36:16.707Z,1001.49
2022-11-08T06:37:16.717Z,1001.49
2022-11-08T06:38:16.727Z,1001.49
2022-11-08T06:39:16.697Z,1001.48
2022-11-08T06:40:16.673Z,1001.48
2022-11-08T06:41:16.691Z,1001.53
2022-11-08T06:42:16.663Z,1001.59
2022-11-08T06:43:19.863Z,1001.57
2022-11-08T06:44:16.637Z,1001.54
2022-11-08T06:45:16.617Z,1001.58
2022-11-08T06:46:16.596Z,1001.60
2022-11-08T06:47:16.641Z,1001.65
2022-11-08T06:48:16.609Z,1001.61
2022-11-08T06:49:16.572Z,1001.66
2022-11-08T06:50:16.587Z,1001.66
2022-11-08T06:51:16.567Z,1001.66
2022-11-08T06:52:16.593Z,1001.71
2022-11-08T06:53:16.889Z,1001.72
2022-11-08T06:54:17.882Z,1001.76
2022-11-08T06:55:16.529Z,1001.76
2022-11-08T06:56:16.494Z,1001.76
2022-11-08T06:57:16.488Z,1001.88
2022-11-08T06:58:16.481Z,1001.81
2022-11-08T06:59:16.499Z,1001.87
2022-11-08T07:00:16.443Z,1001.84
2022-11-08T07:01:16.505Z,1001.88
2022-11-08T07:02:16.594Z,1001.90
2022-11-08T07:03:16.879Z,1001.87
2022-11-08T07:04:16.416Z,1001.90
2022-11-08T07:05:16.410Z,1001.82
2022-11-08T07:06:16.383Z,1001.83
2022-11-08T07:07:16.393Z,1001.86
2022-11-08T07:08:22.343Z,1001.86
2022-11-08T07:09:17.361Z,1001.87
2022-11-08T07:10:16.414Z,1001.81
2022-11-08T07:11:16.340Z,1001.87
2022-11-08T07:12:16.333Z,1001.89
2022-11-08T07:13:16.736Z,1001.80
2022-11-08T07:14:16.297Z,1001.78
2022-11-08T07:15:16.290Z,1001.80
2022-11-08T07:16:16.297Z,1001.77
2022-11-08T07:17:16.274Z,1001.80
2022-11-08T07:18:16.334Z,1001.79
2022-11-08T07:19:16.257Z,1001.82
2022-11-08T07:20:16.239Z,1001.79
2022-11-08T07:21:16.247Z,1001.82
2022-11-08T07:22:16.208Z,1001.77
2022-11-08T07:23:16.203Z,1001.84
2022-11-08T07:24:16.205Z,1001.82
2022-11-08T07:25:16.180Z,1001.81
2022-11-08T07:26:16.235Z,1001.84
2022-11-08T07:27:16.154Z,1001.73
2022-11-08T07:28:16.141Z,1001.77
2022-11-08T07:29:16.379Z,1001.79
2022-11-08T07:30:16.124Z,1001.72
2022-11-08T07:31:16.117Z,1001.82
2022-11-08T07:32:16.104Z,1001.79
2022-11-08T07:33:16.592Z,1001.83
2022-11-08T07:34:16.091Z,1001.83
2022-11-08T07:35:16.095Z,1001.79
2022-11-08T07:36:16.059Z,1001.87
2022-11-08T07:37:16.054Z,1001.87
2022-11-08T07:38:16.052Z,1001.90
2022-11-08T07:39:16.022Z,1001.94
2022-11-08T07:40:16.020Z,1001.90
2022-11-08T07:41:15.998Z,1001.98
2022-11-08T07:42:15.979Z,1001.84
2022-11-08T07:43:15.994Z,1001.97
2022-11-08T07:44:15.963Z,1001.99
2022-11-08T07:45:15.972Z,1001.98
2022-11-08T07:46:16.034Z,1002.00
2022-11-08T07:47:15.968Z,1002.03
2022-11-08T07:48:15.933Z,1001.98
2022-11-08T07:49:15.917Z,1001.93
2022-11-08T07:50:17.875Z,1001.89
2022-11-08T07:51:15.908Z,1001.92
2022-11-08T07:52:15.866Z,1001.90
2022-11-08T07:53:16.372Z,1001.95
2022-11-08T07:54:15.869Z,1001.98
2022-11-08T07:55:15.848Z,1001.97
2022-11-08T07:56:15.847Z,1001.95
2022-11-08T07:57:15.831Z,1001.96
2022-11-08T07:58:15.812Z,1001.92
2022-11-08T07:59:15.796Z,1001.91
2022-11-08T08:00:15.789Z,1001.93
2022-11-08T08:01:15.802Z,1001.85
2022-11-08T08:02:15.873Z,1001.86
2022-11-08T08:03:16.269Z,1001.83
2022-11-08T08:04:15.733Z,1001.89
2022-11-08T08:05:15.733Z,1001.86
2022-11-08T08:06:15.754Z,1001.87
2022-11-08T08:07:15.836Z,1001.87
2022-11-08T08:08:15.729Z,1001.74
2022-11-08T08:09:15.707Z,1001.84
2022-11-08T08:10:15.675Z,1001.86
2022-11-08T08:11:15.656Z,1001.85
2022-11-08T08:12:15.661Z,1001.81
2022-11-08T08:13:16.029Z,1001.76
2022-11-08T08:14:15.641Z,1001.81
2022-11-08T08:15:15.769Z,1001.73
2022-11-08T08:16:15.622Z,1001.65
2022-11-08T08:17:15.597Z,1001.72
2022-11-08T08:18:15.598Z,1001.77
2022-11-08T08:19:15.582Z,1001.80
2022-11-08T08:20:15.556Z,1001.82
2022-11-08T08:21:15.572Z,1001.72
2022-11-08T08:22:15.542Z,1001.70
2022-11-08T08:23:15.788Z,1001.77
2022-11-08T08:24:15.527Z,1001.73
2022-11-08T08:25:15.502Z,1001.78
2022-11-08T08:26:15.512Z,1001.81
2022-11-08T08:27:15.489Z,1001.77
2022-11-08T08:28:15.572Z,1001.76
2022-11-08T08:29:15.473Z,1001.77
2022-11-08T08:30:15.458Z,1001.75
2022-11-08T08:31:15.461Z,1001.77
2022-11-08T08:32:15.444Z,1001.78
2022-11-08T08:33:27.911Z,1001.82
2022-11-08T08:34:16.420Z,1001.84
2022-11-08T08:35:15.840Z,1001.85
2022-11-08T08:36:15.451Z,1001.83
2022-11-08T08:37:15.411Z,1001.83
2022-11-08T08:38:15.361Z,1001.80
2022-11-08T08:39:15.419Z,1001.83
2022-11-08T08:40:15.363Z,1001.86
2022-11-08T08:41:15.362Z,1001.82
2022-11-08T08:42:15.309Z,1001.81
2022-11-08T08:43:15.571Z,1001.82
2022-11-08T08:44:15.346Z,1001.81
2022-11-08T08:45:15.431Z,1001.79
2022-11-08T08:46:15.316Z,1001.81
2022-11-08T08:47:15.293Z,1001.83
2022-11-08T08:48:15.310Z,1001.84
2022-11-08T08:49:15.241Z,1001.79
2022-11-08T08:50:15.235Z,1001.82
2022-11-08T08:51:15.259Z,1001.85
2022-11-08T08:52:15.380Z,1001.85
2022-11-08T08:53:15.479Z,1001.91
2022-11-08T08:54:15.303Z,1001.89
2022-11-08T08:55:15.214Z,1001.70
2022-11-08T08:56:15.169Z,1001.84
2022-11-08T08:57:15.177Z,1001.86
2022-11-08T08:58:15.153Z,1001.81
2022-11-08T09:02:16.121Z,1001.90
2022-11-08T09:03:15.260Z,1001.85
2022-11-08T09:04:15.097Z,1001.87
2022-11-08T09:05:15.089Z,1001.87
2022-11-08T09:06:15.116Z,1001.89
2022-11-08T09:07:15.132Z,1001.88
2022-11-08T09:08:15.036Z,1001.96
2022-11-08T09:09:15.022Z,1001.99
2022-11-08T09:10:15.008Z,1001.95
2022-11-08T09:11:15.024Z,1001.95
2022-11-08T09:12:14.991Z,1001.92
2022-11-08T09:13:15.221Z,1001.90
2022-11-08T09:14:14.975Z,1001.87
2022-11-08T09:15:15.074Z,1001.83
2022-11-08T09:16:14.936Z,1001.83
2022-11-08T09:17:14.959Z,1001.83
2022-11-08T09:18:14.954Z,1001.89
2022-11-08T09:19:15.069Z,1001.90
2022-11-08T09:20:14.906Z,1001.91
2022-11-08T09:21:14.952Z,1001.91
2022-11-08T09:22:14.918Z,1001.93
2022-11-08T09:23:15.170Z,1001.95
2022-11-08T09:24:15.007Z,1001.89
2022-11-08T09:25:14.844Z,1001.86
2022-11-08T09:26:14.832Z,1001.81
2022-11-08T09:27:14.881Z,1001.81
2022-11-08T09:28:14.805Z,1001.86
2022-11-08T09:29:14.794Z,1001.83
2022-11-08T09:30:14.789Z,1001.82
2022-11-08T09:31:14.781Z,1001.88
2022-11-08T09:32:14.754Z,1001.78
2022-11-08T09:33:15.169Z,1001.86
2022-11-08T09:34:17.603Z,1001.78
2022-11-08T09:35:15.750Z,1001.75
2022-11-08T09:36:15.592Z,1001.78
2022-11-08T09:37:14.719Z,1001.77
2022-11-08T09:38:15.009Z,1001.79
2022-11-08T09:39:14.668Z,1001.80
2022-11-08T09:40:14.680Z,1001.76
2022-11-08T09:41:14.662Z,1001.79
2022-11-08T09:42:14.655Z,1001.76
2022-11-08T09:43:14.915Z,1001.83
2022-11-08T09:44:14.639Z,1001.80
2022-11-08T09:45:14.621Z,1001.81
2022-11-08T09:46:14.631Z,1001.82
2022-11-08T09:47:14.608Z,1001.85
2022-11-08T09:48:14.582Z,1001.89
2022-11-08T09:49:14.569Z,1001.84
2022-11-08T09:50:14.541Z,1001.83
2022-11-08T09:51:14.565Z,1001.95
2022-11-08T09:52:14.540Z,1002.13
2022-11-08T09:53:14.831Z,1002.18
2022-11-08T09:54:18.499Z,1002.17
2022-11-08T09:55:14.515Z,1002.17
2022-11-08T09:56:14.483Z,1002.17
2022-11-08T09:57:14.477Z,1002.20
2022-11-08T09:58:14.489Z,1002.14
2022-11-08T09:59:14.554Z,1002.14
2022-11-08T10:00:14.456Z,1002.16
2022-11-08T10:01:14.539Z,1002.21
2022-11-08T10:02:14.476Z,1002.19
2022-11-08T10:03:14.906Z,1002.22
2022-11-08T10:04:14.394Z,1002.14
2022-11-08T10:05:14.392Z,1002.17
2022-11-08T10:06:14.377Z,1002.16
2022-11-08T10:07:14.567Z,1002.12
2022-11-08T10:08:14.353Z,1002.15
2022-11-08T10:09:14.356Z,1002.05
2022-11-08T10:10:14.352Z,1002.07
2022-11-08T10:11:14.331Z,1002.10
2022-11-08T10:12:14.336Z,1002.11
2022-11-08T10:13:14.297Z,1002.08
2022-11-08T10:14:14.300Z,1002.07
2022-11-08T10:15:14.332Z,1002.02
2022-11-08T10:16:14.331Z,1001.98
2022-11-08T10:17:14.254Z,1001.94
2022-11-08T10:18:14.242Z,1001.95
2022-11-08T10:19:14.226Z,1001.94
2022-11-08T10:20:14.230Z,1001.91
2022-11-08T10:21:14.247Z,1001.89
2022-11-08T10:22:14.191Z,1001.88
2022-11-08T10:23:14.246Z,1001.87
2022-11-08T10:24:14.171Z,1001.89
2022-11-08T10:25:14.179Z,1001.86
2022-11-08T10:26:14.143Z,1001.82
2022-11-08T10:27:14.552Z,1001.83
2022-11-08T10:28:14.124Z,1001.77
2022-11-08T10:29:14.168Z,1001.78
2022-11-08T10:30:14.113Z,1001.76
2022-11-08T10:31:14.224Z,1001.77
2022-11-08T10:32:14.081Z,1001.65
2022-11-08T10:33:14.092Z,1001.64
2022-11-08T10:34:14.059Z,1001.66
2022-11-08T10:35:14.056Z,1001.69
2022-11-08T10:36:14.084Z,1001.69
2022-11-08T10:37:14.027Z,1001.77
2022-11-08T10:38:14.052Z,1001.71
2022-11-08T10:39:13.998Z,1001.69
2022-11-08T10:40:14.059Z,1001.71
2022-11-08T10:41:13.982Z,1001.63
2022-11-08T10:42:13.960Z,1001.64
2022-11-08T10:43:13.964Z,1001.66
2022-11-08T10:44:13.974Z,1001.66
2022-11-08T10:45:13.936Z,1001.63
2022-11-08T10:46:13.939Z,1001.67
2022-11-08T10:47:13.926Z,1001.53
2022-11-08T10:48:13.941Z,1001.65
2022-11-08T10:49:13.897Z,1001.68
2022-11-08T10:50:13.886Z,1001.71
2022-11-08T10:51:13.865Z,1001.63
2022-11-08T10:52:13.843Z,1001.65
2022-11-08T10:53:13.839Z,1001.65
2022-11-08T10:54:13.845Z,1001.65
2022-11-08T10:55:13.846Z,1001.60
2022-11-08T10:56:13.820Z,1001.51
2022-11-08T10:57:13.788Z,1001.52
2022-11-08T10:58:13.787Z,1001.36
2022-11-08T10:59:13.796Z,1001.45
2022-11-08T11:00:13.784Z,1001.44
2022-11-08T11:01:13.756Z,1001.43
2022-11-08T11:02:13.873Z,1001.36
2022-11-08T11:03:13.794Z,1001.36
2022-11-08T11:04:13.726Z,1001.36
2022-11-08T11:05:13.703Z,1001.33
2022-11-08T11:06:13.756Z,1001.30
2022-11-08T11:07:13.735Z,1001.30
2022-11-08T11:08:13.687Z,1001.25
2022-11-08T11:09:13.662Z,1001.19
2022-11-08T11:10:13.662Z,1001.21
2022-11-08T11:11:13.631Z,1001.28
2022-11-08T11:12:13.634Z,1001.16
2022-11-08T11:13:13.712Z,1001.24
2022-11-08T11:14:16.512Z,1001.27
2022-11-08T11:15:14.614Z,1001.21
2022-11-08T11:16:13.577Z,1001.17
2022-11-08T11:17:13.637Z,1001.18
2022-11-08T11:18:13.571Z,1001.20
2022-11-08T11:19:13.581Z,1001.23
2022-11-08T11:20:13.543Z,1001.23
2022-11-08T11:21:13.543Z,1001.18
2022-11-08T11:22:13.557Z,1001.10
2022-11-08T11:23:13.511Z,1001.17
2022-11-08T11:24:16.602Z,1001.09
2022-11-08T11:25:14.497Z,1001.07
2022-11-08T11:26:13.475Z,1001.04
2022-11-08T11:27:13.478Z,1001.09
2022-11-08T11:28:13.456Z,1001.10
2022-11-08T11:29:13.442Z,1001.00
2022-11-08T11:30:13.447Z,1001.08
2022-11-08T11:31:13.461Z,1000.97
2022-11-08T11:32:13.421Z,1000.95
2022-11-08T11:33:13.434Z,1000.89
2022-11-08T11:34:13.394Z,1000.97
2022-11-08T11:35:13.383Z,1000.86
2022-11-08T11:36:13.923Z,1000.85
2022-11-08T11:37:13.389Z,1000.82
2022-11-08T11:38:13.364Z,1000.88
2022-11-08T11:39:13.321Z,1000.81
2022-11-08T11:40:13.318Z,1000.80
2022-11-08T11:41:13.357Z,1000.83
2022-11-08T11:42:39.185Z,1000.73
2022-11-08T11:43:14.289Z,1000.83
2022-11-08T11:44:13.271Z,1000.84
2022-11-08T11:45:13.250Z,1000.86
2022-11-08T11:46:13.241Z,1000.88
2022-11-08T11:47:13.239Z,1000.87
2022-11-08T11:48:13.243Z,1000.85
2022-11-08T11:49:13.223Z,1000.83
2022-11-08T11:50:13.212Z,1000.77
2022-11-08T11:51:13.360Z,1000.78
2022-11-08T11:52:13.183Z,1000.72
2022-11-08T11:53:13.473Z,1000.75
2022-11-08T11:54:13.168Z,1000.73
2022-11-08T11:55:13.143Z,1000.71
2022-11-08T11:56:13.150Z,1000.68
2022-11-08T11:57:13.139Z,1000.64
2022-11-08T11:58:13.116Z,1000.62
2022-11-08T11:59:13.163Z,1000.58
2022-11-08T12:00:13.123Z,1000.54
2022-11-08T12:01:14.628Z,1000.38
2022-11-08T12:02:13.143Z,1000.28
2022-11-08T12:03:13.128Z,1000.33
2022-11-08T12:04:13.063Z,1000.30
2022-11-08T12:05:13.061Z,1000.25
2022-11-08T12:06:13.030Z,1000.29
2022-11-08T12:07:13.062Z,1000.24
2022-11-08T12:08:13.014Z,1000.20